Pagina principale
METAR-TAF:

METAR-TAF

Aeroporti :

Aeroporto di Ouagadougou

Ouagadougou, Burkina Faso

latitudine: 12-21N, longitudine: 001-31W, altezza: 316 m

Osservazione

Il bollettino è stato emesso 58 minuti fa, alle 00:00 UTC
Vento 3 kt da sud
Temperature 26°C
Umidità 84%
Pressione 1015 hPa
Visibilità 10 km o più
nessuna nube inferiore a 1500 m e nessun cumulonembo

METAR: DFFD 160000Z 19003KT CAVOK 26/23 Q1015 NOSIG

Ora: 00:58 (00:58 UTC)

Previsione

Il bollettino è stato emesso 1 ora e 58 minuti fa, alle 23:00 UTC
Previsione valida dal 16 alle 00 UTC al 17 alle 06 UTC
Vento 8 kt da sud-ovest
Visibilità 10 km o più
Nubi sparse ad un'altezza di 2000 ft
Temporaneamente
dal 16 alle 12 UTC al 16 alle 24 UTC
Visibilità: 4000 m
Nubi sparse ad un'altezza di 2000 ft
Nubi sparse ad un'altezza di 3300 ft, Cumulonembo.

TAF: DFFD 152300Z 1600/1706 22008KT 9999 SCT020 TEMPO 1612/1624 4000 TSSHRA SCT020 SCT033CB

Osservazioni e previsioni meteorologiche di più di 4000 aeroporti (messaggi METAR e TAF).

Le stazioni disponibili sono rappresentate dai dischi gialli e rossi sulla carta.

Puntare il mouse per vedere il nome della stazione.

Clicca sopra per visualizzare le osservazioni e previsioni meteorologiche.

Per cambiare la mappa : fare clic sui pulsanti verdi con una croce nera per ingrandire, il pulsante verde con un trattino per diminuire, o sulla freccia verde per le mappe adiacenti.


METAR-TAF: